sensor_id;sensor_type;location;lat;lon;timestamp;P1;durP1;ratioP1;P2;durP2;ratioP2
75169;SDS011;63749;49.186;9.222;2023-04-15T00:02:00;15.70;;;7.90;;
75169;SDS011;63749;49.186;9.222;2023-04-15T00:04:26;16.03;;;8.17;;
75169;SDS011;63749;49.186;9.222;2023-04-15T00:06:52;15.07;;;8.23;;
75169;SDS011;63749;49.186;9.222;2023-04-15T00:09:18;17.58;;;8.55;;
75169;SDS011;63749;49.186;9.222;2023-04-15T00:11:44;16.85;;;8.93;;
75169;SDS011;63749;49.186;9.222;2023-04-15T00:14:10;16.20;;;8.57;;
75169;SDS011;63749;49.186;9.222;2023-04-15T00:16:37;20.05;;;8.45;;
75169;SDS011;63749;49.186;9.222;2023-04-15T00:19:02;14.70;;;7.83;;
75169;SDS011;63749;49.186;9.222;2023-04-15T00:21:27;13.10;;;7.33;;
75169;SDS011;63749;49.186;9.222;2023-04-15T00:23:53;14.00;;;7.40;;
75169;SDS011;63749;49.186;9.222;2023-04-15T00:26:19;14.80;;;7.53;;
75169;SDS011;63749;49.186;9.222;2023-04-15T00:28:45;14.63;;;7.43;;
75169;SDS011;63749;49.186;9.222;2023-04-15T00:31:10;16.17;;;7.93;;
75169;SDS011;63749;49.186;9.222;2023-04-15T00:33:35;11.67;;;6.70;;
75169;SDS011;63749;49.186;9.222;2023-04-15T00:36:01;14.57;;;7.10;;
75169;SDS011;63749;49.186;9.222;2023-04-15T00:38:27;14.70;;;7.03;;
75169;SDS011;63749;49.186;9.222;2023-04-15T00:40:53;14.93;;;7.33;;
75169;SDS011;63749;49.186;9.222;2023-04-15T00:43:19;14.38;;;7.13;;
75169;SDS011;63749;49.186;9.222;2023-04-15T00:45:44;15.03;;;7.50;;
75169;SDS011;63749;49.186;9.222;2023-04-15T00:48:11;15.25;;;7.47;;
75169;SDS011;63749;49.186;9.222;2023-04-15T00:50:37;15.10;;;7.57;;
75169;SDS011;63749;49.186;9.222;2023-04-15T00:53:02;15.10;;;7.37;;
75169;SDS011;63749;49.186;9.222;2023-04-15T00:55:27;14.23;;;7.07;;
75169;SDS011;63749;49.186;9.222;2023-04-15T00:57:53;16.03;;;7.83;;
75169;SDS011;63749;49.186;9.222;2023-04-15T01:00:19;14.70;;;7.80;;
75169;SDS011;63749;49.186;9.222;2023-04-15T01:02:45;15.57;;;8.13;;
75169;SDS011;63749;49.186;9.222;2023-04-15T01:05:10;17.25;;;8.07;;
75169;SDS011;63749;49.186;9.222;2023-04-15T01:07:35;14.60;;;8.07;;
75169;SDS011;63749;49.186;9.222;2023-04-15T01:10:02;17.87;;;8.70;;
75169;SDS011;63749;49.186;9.222;2023-04-15T01:12:28;18.75;;;8.32;;
75169;SDS011;63749;49.186;9.222;2023-04-15T01:14:56;17.45;;;8.02;;
75169;SDS011;63749;49.186;9.222;2023-04-15T01:17:21;17.20;;;8.70;;
75169;SDS011;63749;49.186;9.222;2023-04-15T01:19:48;15.95;;;7.80;;
75169;SDS011;63749;49.186;9.222;2023-04-15T01:22:14;16.53;;;8.23;;
75169;SDS011;63749;49.186;9.222;2023-04-15T01:24:40;15.23;;;8.17;;
75169;SDS011;63749;49.186;9.222;2023-04-15T01:27:06;16.30;;;8.30;;
75169;SDS011;63749;49.186;9.222;2023-04-15T01:29:36;20.67;;;8.80;;
75169;SDS011;63749;49.186;9.222;2023-04-15T01:32:02;19.42;;;9.02;;
75169;SDS011;63749;49.186;9.222;2023-04-15T01:34:28;16.17;;;8.30;;
75169;SDS011;63749;49.186;9.222;2023-04-15T01:36:53;17.10;;;8.90;;
75169;SDS011;63749;49.186;9.222;2023-04-15T01:39:19;16.90;;;9.00;;
75169;SDS011;63749;49.186;9.222;2023-04-15T01:41:44;18.93;;;9.13;;
75169;SDS011;63749;49.186;9.222;2023-04-15T01:44:09;17.77;;;8.93;;
75169;SDS011;63749;49.186;9.222;2023-04-15T01:46:35;20.83;;;9.53;;
75169;SDS011;63749;49.186;9.222;2023-04-15T01:49:01;19.88;;;9.43;;
75169;SDS011;63749;49.186;9.222;2023-04-15T01:51:26;20.23;;;9.27;;
75169;SDS011;63749;49.186;9.222;2023-04-15T01:53:52;16.75;;;8.77;;
75169;SDS011;63749;49.186;9.222;2023-04-15T01:56:20;18.23;;;8.90;;
75169;SDS011;63749;49.186;9.222;2023-04-15T01:58:46;19.95;;;9.05;;
75169;SDS011;63749;49.186;9.222;2023-04-15T02:01:11;18.87;;;9.17;;
75169;SDS011;63749;49.186;9.222;2023-04-15T02:03:37;16.80;;;9.10;;
75169;SDS011;63749;49.186;9.222;2023-04-15T02:06:03;19.98;;;9.70;;
75169;SDS011;63749;49.186;9.222;2023-04-15T02:08:30;20.02;;;9.70;;
75169;SDS011;63749;49.186;9.222;2023-04-15T02:10:55;19.70;;;10.13;;
75169;SDS011;63749;49.186;9.222;2023-04-15T02:13:21;21.53;;;9.60;;
75169;SDS011;63749;49.186;9.222;2023-04-15T02:15:47;21.63;;;9.80;;
75169;SDS011;63749;49.186;9.222;2023-04-15T02:18:13;21.10;;;10.60;;
75169;SDS011;63749;49.186;9.222;2023-04-15T02:20:39;17.27;;;9.52;;
75169;SDS011;63749;49.186;9.222;2023-04-15T02:23:04;22.13;;;10.53;;
75169;SDS011;63749;49.186;9.222;2023-04-15T02:25:31;22.17;;;10.88;;
75169;SDS011;63749;49.186;9.222;2023-04-15T02:27:56;19.23;;;9.47;;
75169;SDS011;63749;49.186;9.222;2023-04-15T02:30:22;20.43;;;9.57;;
75169;SDS011;63749;49.186;9.222;2023-04-15T02:32:47;18.75;;;9.20;;
75169;SDS011;63749;49.186;9.222;2023-04-15T02:35:13;20.57;;;9.07;;
75169;SDS011;63749;49.186;9.222;2023-04-15T02:37:38;17.93;;;8.97;;
75169;SDS011;63749;49.186;9.222;2023-04-15T02:40:09;20.52;;;8.98;;
75169;SDS011;63749;49.186;9.222;2023-04-15T02:42:36;20.05;;;8.73;;
75169;SDS011;63749;49.186;9.222;2023-04-15T02:45:02;18.10;;;9.02;;
75169;SDS011;63749;49.186;9.222;2023-04-15T02:47:28;15.40;;;8.30;;
75169;SDS011;63749;49.186;9.222;2023-04-15T02:49:53;21.67;;;9.53;;
75169;SDS011;63749;49.186;9.222;2023-04-15T02:52:19;17.47;;;9.50;;
75169;SDS011;63749;49.186;9.222;2023-04-15T02:54:44;21.65;;;9.68;;
75169;SDS011;63749;49.186;9.222;2023-04-15T02:57:09;18.20;;;9.27;;
75169;SDS011;63749;49.186;9.222;2023-04-15T02:59:35;19.77;;;9.57;;
75169;SDS011;63749;49.186;9.222;2023-04-15T03:02:01;21.15;;;9.95;;
75169;SDS011;63749;49.186;9.222;2023-04-15T03:04:26;21.33;;;9.23;;
75169;SDS011;63749;49.186;9.222;2023-04-15T03:06:54;17.70;;;9.38;;
75169;SDS011;63749;49.186;9.222;2023-04-15T03:09:20;23.30;;;9.93;;
75169;SDS011;63749;49.186;9.222;2023-04-15T03:11:45;19.67;;;9.70;;
75169;SDS011;63749;49.186;9.222;2023-04-15T03:14:10;21.03;;;9.53;;
75169;SDS011;63749;49.186;9.222;2023-04-15T03:16:36;19.00;;;9.73;;
75169;SDS011;63749;49.186;9.222;2023-04-15T03:19:01;20.33;;;10.03;;
75169;SDS011;63749;49.186;9.222;2023-04-15T03:21:26;23.67;;;10.03;;
75169;SDS011;63749;49.186;9.222;2023-04-15T03:23:52;22.93;;;10.30;;
75169;SDS011;63749;49.186;9.222;2023-04-15T03:26:50;17.10;;;9.70;;
75169;SDS011;63749;49.186;9.222;2023-04-15T03:29:09;19.23;;;9.57;;
75169;SDS011;63749;49.186;9.222;2023-04-15T03:31:34;16.73;;;9.10;;
75169;SDS011;63749;49.186;9.222;2023-04-15T03:34:00;17.43;;;9.00;;
75169;SDS011;63749;49.186;9.222;2023-04-15T03:36:25;16.27;;;8.67;;
75169;SDS011;63749;49.186;9.222;2023-04-15T03:38:53;18.90;;;9.35;;
75169;SDS011;63749;49.186;9.222;2023-04-15T03:41:19;19.40;;;9.68;;
75169;SDS011;63749;49.186;9.222;2023-04-15T03:43:44;20.90;;;9.73;;
75169;SDS011;63749;49.186;9.222;2023-04-15T03:46:09;19.97;;;9.77;;
75169;SDS011;63749;49.186;9.222;2023-04-15T03:48:35;17.73;;;10.20;;
75169;SDS011;63749;49.186;9.222;2023-04-15T03:51:00;17.33;;;9.97;;
75169;SDS011;63749;49.186;9.222;2023-04-15T03:53:26;22.45;;;10.43;;
75169;SDS011;63749;49.186;9.222;2023-04-15T03:55:51;22.37;;;10.57;;
75169;SDS011;63749;49.186;9.222;2023-04-15T03:58:16;20.50;;;10.10;;
75169;SDS011;63749;49.186;9.222;2023-04-15T04:00:42;23.33;;;10.52;;
75169;SDS011;63749;49.186;9.222;2023-04-15T04:03:08;19.43;;;9.57;;
75169;SDS011;63749;49.186;9.222;2023-04-15T04:05:33;18.00;;;10.18;;
75169;SDS011;63749;49.186;9.222;2023-04-15T04:08:01;24.73;;;10.47;;
75169;SDS011;63749;49.186;9.222;2023-04-15T04:10:26;21.95;;;10.80;;
75169;SDS011;63749;49.186;9.222;2023-04-15T04:12:51;20.00;;;10.23;;
75169;SDS011;63749;49.186;9.222;2023-04-15T04:15:17;17.13;;;8.83;;
75169;SDS011;63749;49.186;9.222;2023-04-15T04:17:42;17.87;;;8.30;;
75169;SDS011;63749;49.186;9.222;2023-04-15T04:20:08;16.07;;;7.93;;
75169;SDS011;63749;49.186;9.222;2023-04-15T04:22:37;15.88;;;8.25;;
75169;SDS011;63749;49.186;9.222;2023-04-15T04:25:03;15.05;;;7.82;;
75169;SDS011;63749;49.186;9.222;2023-04-15T04:27:29;14.53;;;8.00;;
75169;SDS011;63749;49.186;9.222;2023-04-15T04:29:55;19.00;;;8.18;;
75169;SDS011;63749;49.186;9.222;2023-04-15T04:32:20;15.30;;;7.63;;
75169;SDS011;63749;49.186;9.222;2023-04-15T04:34:45;18.17;;;7.60;;
75169;SDS011;63749;49.186;9.222;2023-04-15T04:37:12;16.88;;;8.18;;
75169;SDS011;63749;49.186;9.222;2023-04-15T04:39:37;16.43;;;7.93;;
75169;SDS011;63749;49.186;9.222;2023-04-15T04:42:02;15.63;;;8.13;;
75169;SDS011;63749;49.186;9.222;2023-04-15T04:44:28;19.10;;;7.87;;
75169;SDS011;63749;49.186;9.222;2023-04-15T04:46:53;17.60;;;7.97;;
75169;SDS011;63749;49.186;9.222;2023-04-15T04:49:19;15.57;;;7.93;;
75169;SDS011;63749;49.186;9.222;2023-04-15T04:51:44;16.30;;;8.67;;
75169;SDS011;63749;49.186;9.222;2023-04-15T04:54:11;18.92;;;9.27;;
75169;SDS011;63749;49.186;9.222;2023-04-15T04:56:36;19.70;;;9.23;;
75169;SDS011;63749;49.186;9.222;2023-04-15T04:59:03;19.80;;;9.93;;
75169;SDS011;63749;49.186;9.222;2023-04-15T05:01:28;22.00;;;9.90;;
75169;SDS011;63749;49.186;9.222;2023-04-15T05:03:54;17.23;;;9.07;;
75169;SDS011;63749;49.186;9.222;2023-04-15T05:06:20;19.40;;;9.23;;
75169;SDS011;63749;49.186;9.222;2023-04-15T05:08:45;21.90;;;9.47;;
75169;SDS011;63749;49.186;9.222;2023-04-15T05:11:11;17.80;;;9.57;;
75169;SDS011;63749;49.186;9.222;2023-04-15T05:13:37;20.60;;;9.55;;
75169;SDS011;63749;49.186;9.222;2023-04-15T05:16:05;18.83;;;10.07;;
75169;SDS011;63749;49.186;9.222;2023-04-15T05:18:30;22.20;;;10.73;;
75169;SDS011;63749;49.186;9.222;2023-04-15T05:20:56;21.87;;;10.17;;
75169;SDS011;63749;49.186;9.222;2023-04-15T05:23:21;25.17;;;10.07;;
75169;SDS011;63749;49.186;9.222;2023-04-15T05:25:47;19.73;;;10.17;;
75169;SDS011;63749;49.186;9.222;2023-04-15T05:28:12;21.27;;;9.70;;
75169;SDS011;63749;49.186;9.222;2023-04-15T05:30:38;21.17;;;10.23;;
75169;SDS011;63749;49.186;9.222;2023-04-15T05:33:03;21.80;;;10.43;;
75169;SDS011;63749;49.186;9.222;2023-04-15T05:35:29;20.20;;;9.63;;
75169;SDS011;63749;49.186;9.222;2023-04-15T05:37:54;22.73;;;10.47;;
75169;SDS011;63749;49.186;9.222;2023-04-15T05:40:19;22.33;;;10.67;;
75169;SDS011;63749;49.186;9.222;2023-04-15T05:42:45;25.27;;;11.70;;
75169;SDS011;63749;49.186;9.222;2023-04-15T05:45:10;22.43;;;11.50;;
75169;SDS011;63749;49.186;9.222;2023-04-15T05:47:36;23.67;;;11.40;;
75169;SDS011;63749;49.186;9.222;2023-04-15T05:50:02;20.73;;;10.95;;
75169;SDS011;63749;49.186;9.222;2023-04-15T05:52:28;22.55;;;10.63;;
75169;SDS011;63749;49.186;9.222;2023-04-15T05:54:53;19.23;;;10.87;;
75169;SDS011;63749;49.186;9.222;2023-04-15T05:57:19;22.70;;;11.07;;
75169;SDS011;63749;49.186;9.222;2023-04-15T05:59:44;24.03;;;11.30;;
75169;SDS011;63749;49.186;9.222;2023-04-15T06:02:10;20.40;;;11.03;;
75169;SDS011;63749;49.186;9.222;2023-04-15T06:04:35;21.90;;;10.80;;
75169;SDS011;63749;49.186;9.222;2023-04-15T06:07:01;19.33;;;10.37;;
75169;SDS011;63749;49.186;9.222;2023-04-15T06:09:26;22.33;;;10.67;;
75169;SDS011;63749;49.186;9.222;2023-04-15T06:11:53;20.65;;;10.80;;
75169;SDS011;63749;49.186;9.222;2023-04-15T06:14:18;18.77;;;10.23;;
75169;SDS011;63749;49.186;9.222;2023-04-15T06:16:43;21.33;;;10.93;;
75169;SDS011;63749;49.186;9.222;2023-04-15T06:19:09;20.70;;;10.67;;
75169;SDS011;63749;49.186;9.222;2023-04-15T06:21:34;19.47;;;10.50;;
75169;SDS011;63749;49.186;9.222;2023-04-15T06:24:00;20.38;;;10.60;;
75169;SDS011;63749;49.186;9.222;2023-04-15T06:26:26;20.53;;;10.60;;
75169;SDS011;63749;49.186;9.222;2023-04-15T06:28:52;17.88;;;10.07;;
75169;SDS011;63749;49.186;9.222;2023-04-15T06:31:17;15.03;;;9.53;;
75169;SDS011;63749;49.186;9.222;2023-04-15T06:33:43;20.80;;;9.40;;
75169;SDS011;63749;49.186;9.222;2023-04-15T06:36:08;19.27;;;9.05;;
75169;SDS011;63749;49.186;9.222;2023-04-15T06:38:33;16.20;;;9.33;;
75169;SDS011;63749;49.186;9.222;2023-04-15T06:40:59;16.00;;;8.50;;
75169;SDS011;63749;49.186;9.222;2023-04-15T06:43:24;14.48;;;8.52;;
75169;SDS011;63749;49.186;9.222;2023-04-15T06:45:50;19.23;;;8.80;;
75169;SDS011;63749;49.186;9.222;2023-04-15T06:48:15;15.13;;;8.43;;
75169;SDS011;63749;49.186;9.222;2023-04-15T06:50:41;17.80;;;9.15;;
75169;SDS011;63749;49.186;9.222;2023-04-15T06:53:07;18.10;;;8.43;;
75169;SDS011;63749;49.186;9.222;2023-04-15T06:55:32;16.93;;;9.10;;
75169;SDS011;63749;49.186;9.222;2023-04-15T06:57:58;14.70;;;8.93;;
75169;SDS011;63749;49.186;9.222;2023-04-15T07:00:23;13.63;;;8.40;;
75169;SDS011;63749;49.186;9.222;2023-04-15T07:02:49;17.70;;;9.00;;
75169;SDS011;63749;49.186;9.222;2023-04-15T07:05:15;14.07;;;8.47;;
75169;SDS011;63749;49.186;9.222;2023-04-15T07:07:41;14.20;;;8.18;;
75169;SDS011;63749;49.186;9.222;2023-04-15T07:10:07;15.03;;;8.20;;
75169;SDS011;63749;49.186;9.222;2023-04-15T07:12:32;13.18;;;8.13;;
75169;SDS011;63749;49.186;9.222;2023-04-15T07:14:59;17.33;;;8.07;;
75169;SDS011;63749;49.186;9.222;2023-04-15T07:17:24;15.93;;;8.00;;
75169;SDS011;63749;49.186;9.222;2023-04-15T07:19:50;14.10;;;7.93;;
75169;SDS011;63749;49.186;9.222;2023-04-15T07:22:16;14.57;;;7.80;;
75169;SDS011;63749;49.186;9.222;2023-04-15T07:24:41;15.83;;;8.67;;
75169;SDS011;63749;49.186;9.222;2023-04-15T07:27:06;13.53;;;7.70;;
75169;SDS011;63749;49.186;9.222;2023-04-15T07:29:32;15.40;;;7.63;;
75169;SDS011;63749;49.186;9.222;2023-04-15T07:31:57;14.07;;;7.93;;
75169;SDS011;63749;49.186;9.222;2023-04-15T07:34:23;13.10;;;7.60;;
75169;SDS011;63749;49.186;9.222;2023-04-15T07:36:49;15.83;;;8.00;;
75169;SDS011;63749;49.186;9.222;2023-04-15T07:39:16;12.27;;;7.40;;
75169;SDS011;63749;49.186;9.222;2023-04-15T07:41:41;14.43;;;8.38;;
75169;SDS011;63749;49.186;9.222;2023-04-15T07:44:07;13.23;;;7.93;;
75169;SDS011;63749;49.186;9.222;2023-04-15T07:46:33;15.30;;;7.63;;
75169;SDS011;63749;49.186;9.222;2023-04-15T07:48:58;16.70;;;8.47;;
75169;SDS011;63749;49.186;9.222;2023-04-15T07:51:24;13.98;;;7.82;;
75169;SDS011;63749;49.186;9.222;2023-04-15T07:53:49;14.40;;;7.80;;
75169;SDS011;63749;49.186;9.222;2023-04-15T07:56:15;15.20;;;7.83;;
75169;SDS011;63749;49.186;9.222;2023-04-15T07:58:41;14.93;;;7.37;;
75169;SDS011;63749;49.186;9.222;2023-04-15T08:01:06;13.60;;;7.78;;
75169;SDS011;63749;49.186;9.222;2023-04-15T08:03:32;13.50;;;7.10;;
75169;SDS011;63749;49.186;9.222;2023-04-15T08:05:57;13.23;;;8.03;;
75169;SDS011;63749;49.186;9.222;2023-04-15T08:08:23;17.07;;;7.33;;
75169;SDS011;63749;49.186;9.222;2023-04-15T08:10:49;19.37;;;7.70;;
75169;SDS011;63749;49.186;9.222;2023-04-15T08:13:14;12.63;;;7.80;;
75169;SDS011;63749;49.186;9.222;2023-04-15T08:15:40;12.83;;;7.73;;
75169;SDS011;63749;49.186;9.222;2023-04-15T08:18:06;15.03;;;7.27;;
75169;SDS011;63749;49.186;9.222;2023-04-15T08:20:31;13.97;;;7.77;;
75169;SDS011;63749;49.186;9.222;2023-04-15T08:22:57;13.50;;;7.43;;
75169;SDS011;63749;49.186;9.222;2023-04-15T08:25:22;14.67;;;7.10;;
75169;SDS011;63749;49.186;9.222;2023-04-15T08:27:47;12.55;;;7.05;;
75169;SDS011;63749;49.186;9.222;2023-04-15T08:30:13;11.90;;;7.13;;
75169;SDS011;63749;49.186;9.222;2023-04-15T08:32:41;11.98;;;7.18;;
75169;SDS011;63749;49.186;9.222;2023-04-15T08:35:06;14.13;;;6.93;;
75169;SDS011;63749;49.186;9.222;2023-04-15T08:37:32;12.23;;;6.38;;
75169;SDS011;63749;49.186;9.222;2023-04-15T08:39:57;12.93;;;6.47;;
75169;SDS011;63749;49.186;9.222;2023-04-15T08:42:26;13.97;;;7.17;;
75169;SDS011;63749;49.186;9.222;2023-04-15T08:44:59;15.57;;;7.40;;
75169;SDS011;63749;49.186;9.222;2023-04-15T08:47:28;15.70;;;6.95;;
75169;SDS011;63749;49.186;9.222;2023-04-15T08:49:55;13.30;;;7.32;;
75169;SDS011;63749;49.186;9.222;2023-04-15T08:52:23;13.30;;;6.83;;
75169;SDS011;63749;49.186;9.222;2023-04-15T08:54:50;11.20;;;7.32;;
75169;SDS011;63749;49.186;9.222;2023-04-15T08:57:20;14.20;;;7.93;;
75169;SDS011;63749;49.186;9.222;2023-04-15T08:59:52;11.48;;;6.85;;
75169;SDS011;63749;49.186;9.222;2023-04-15T09:02:19;10.20;;;6.60;;
75169;SDS011;63749;49.186;9.222;2023-04-15T09:04:46;11.77;;;6.97;;
75169;SDS011;63749;49.186;9.222;2023-04-15T09:07:11;13.35;;;6.95;;
75169;SDS011;63749;49.186;9.222;2023-04-15T09:09:36;12.77;;;7.37;;
75169;SDS011;63749;49.186;9.222;2023-04-15T09:12:04;10.75;;;6.85;;
75169;SDS011;63749;49.186;9.222;2023-04-15T09:14:29;11.07;;;7.17;;
75169;SDS011;63749;49.186;9.222;2023-04-15T09:17:00;10.70;;;6.38;;
75169;SDS011;63749;49.186;9.222;2023-04-15T09:19:29;11.97;;;6.70;;
75169;SDS011;63749;49.186;9.222;2023-04-15T09:21:56;12.20;;;6.85;;
75169;SDS011;63749;49.186;9.222;2023-04-15T09:24:23;12.20;;;6.88;;
75169;SDS011;63749;49.186;9.222;2023-04-15T09:26:53;9.85;;;6.20;;
75169;SDS011;63749;49.186;9.222;2023-04-15T09:29:23;9.68;;;6.35;;
75169;SDS011;63749;49.186;9.222;2023-04-15T09:31:49;11.90;;;6.40;;
75169;SDS011;63749;49.186;9.222;2023-04-15T09:34:15;12.65;;;6.82;;
75169;SDS011;63749;49.186;9.222;2023-04-15T09:39:15;10.65;;;6.15;;
75169;SDS011;63749;49.186;9.222;2023-04-15T09:41:41;13.93;;;6.07;;
75169;SDS011;63749;49.186;9.222;2023-04-15T09:44:19;10.50;;;6.30;;
75169;SDS011;63749;49.186;9.222;2023-04-15T09:46:47;12.57;;;6.15;;
75169;SDS011;63749;49.186;9.222;2023-04-15T09:49:12;10.97;;;6.40;;
75169;SDS011;63749;49.186;9.222;2023-04-15T09:51:38;11.40;;;5.83;;
75169;SDS011;63749;49.186;9.222;2023-04-15T09:54:03;8.13;;;5.40;;
75169;SDS011;63749;49.186;9.222;2023-04-15T09:56:35;9.63;;;5.67;;
75169;SDS011;63749;49.186;9.222;2023-04-15T09:59:09;10.60;;;6.40;;
75169;SDS011;63749;49.186;9.222;2023-04-15T10:01:34;10.10;;;4.53;;
75169;SDS011;63749;49.186;9.222;2023-04-15T10:04:03;8.18;;;4.90;;
75169;SDS011;63749;49.186;9.222;2023-04-15T10:06:29;5.70;;;3.53;;
75169;SDS011;63749;49.186;9.222;2023-04-15T10:08:58;9.70;;;4.20;;
75169;SDS011;63749;49.186;9.222;2023-04-15T10:11:25;5.80;;;3.45;;
75169;SDS011;63749;49.186;9.222;2023-04-15T10:13:52;5.13;;;3.40;;
75169;SDS011;63749;49.186;9.222;2023-04-15T10:16:19;6.25;;;3.58;;
75169;SDS011;63749;49.186;9.222;2023-04-15T10:18:47;6.97;;;3.67;;
75169;SDS011;63749;49.186;9.222;2023-04-15T10:21:18;6.50;;;3.30;;
75169;SDS011;63749;49.186;9.222;2023-04-15T10:23:46;8.43;;;3.72;;
75169;SDS011;63749;49.186;9.222;2023-04-15T10:26:12;7.00;;;4.10;;
75169;SDS011;63749;49.186;9.222;2023-04-15T10:28:39;6.45;;;3.90;;
75169;SDS011;63749;49.186;9.222;2023-04-15T10:31:05;6.70;;;3.78;;
75169;SDS011;63749;49.186;9.222;2023-04-15T10:33:31;7.13;;;4.00;;
75169;SDS011;63749;49.186;9.222;2023-04-15T10:35:58;8.02;;;4.10;;
75169;SDS011;63749;49.186;9.222;2023-04-15T10:38:31;6.00;;;3.80;;
75169;SDS011;63749;49.186;9.222;2023-04-15T10:41:13;6.90;;;4.28;;
75169;SDS011;63749;49.186;9.222;2023-04-15T10:44:01;6.15;;;4.30;;
75169;SDS011;63749;49.186;9.222;2023-04-15T10:46:39;6.93;;;4.70;;
75169;SDS011;63749;49.186;9.222;2023-04-15T10:49:09;8.77;;;4.50;;
75169;SDS011;63749;49.186;9.222;2023-04-15T10:51:40;7.68;;;4.70;;
75169;SDS011;63749;49.186;9.222;2023-04-15T10:56:51;8.90;;;4.10;;
75169;SDS011;63749;49.186;9.222;2023-04-15T10:59:35;7.23;;;4.80;;
75169;SDS011;63749;49.186;9.222;2023-04-15T11:07:45;4.72;;;2.45;;
75169;SDS011;63749;49.186;9.222;2023-04-15T11:12:38;4.00;;;2.30;;
75169;SDS011;63749;49.186;9.222;2023-04-15T11:18:14;3.30;;;1.60;;
75169;SDS011;63749;49.186;9.222;2023-04-15T11:20:51;3.33;;;1.90;;
75169;SDS011;63749;49.186;9.222;2023-04-15T11:26:00;3.60;;;1.92;;
75169;SDS011;63749;49.186;9.222;2023-04-15T11:28:29;3.20;;;1.80;;
75169;SDS011;63749;49.186;9.222;2023-04-15T11:30:56;3.95;;;1.75;;
75169;SDS011;63749;49.186;9.222;2023-04-15T11:33:23;3.08;;;1.90;;
75169;SDS011;63749;49.186;9.222;2023-04-15T11:35:49;3.88;;;1.80;;
75169;SDS011;63749;49.186;9.222;2023-04-15T11:38:17;2.80;;;1.70;;
75169;SDS011;63749;49.186;9.222;2023-04-15T11:40:43;3.93;;;2.10;;
75169;SDS011;63749;49.186;9.222;2023-04-15T11:43:13;3.28;;;1.60;;
75169;SDS011;63749;49.186;9.222;2023-04-15T11:48:25;4.05;;;1.83;;
75169;SDS011;63749;49.186;9.222;2023-04-15T11:50:52;2.90;;;1.90;;
75169;SDS011;63749;49.186;9.222;2023-04-15T11:53:22;5.25;;;2.20;;
75169;SDS011;63749;49.186;9.222;2023-04-15T11:55:49;2.97;;;1.70;;
75169;SDS011;63749;49.186;9.222;2023-04-15T12:00:57;3.80;;;1.60;;
75169;SDS011;63749;49.186;9.222;2023-04-15T12:03:57;2.58;;;1.63;;
75169;SDS011;63749;49.186;9.222;2023-04-15T12:06:22;3.15;;;1.50;;
75169;SDS011;63749;49.186;9.222;2023-04-15T12:11:47;1.67;;;1.20;;
75169;SDS011;63749;49.186;9.222;2023-04-15T12:14:20;2.25;;;1.15;;
75169;SDS011;63749;49.186;9.222;2023-04-15T12:16:51;2.13;;;1.10;;
75169;SDS011;63749;49.186;9.222;2023-04-15T12:21:50;1.55;;;0.90;;
75169;SDS011;63749;49.186;9.222;2023-04-15T12:24:18;4.67;;;1.00;;
75169;SDS011;63749;49.186;9.222;2023-04-15T12:26:47;1.88;;;1.10;;
75169;SDS011;63749;49.186;9.222;2023-04-15T12:29:28;2.15;;;0.90;;
75169;SDS011;63749;49.186;9.222;2023-04-15T12:31:55;4.03;;;0.90;;
75169;SDS011;63749;49.186;9.222;2023-04-15T12:34:27;1.67;;;1.00;;
75169;SDS011;63749;49.186;9.222;2023-04-15T12:36:53;2.70;;;1.07;;
75169;SDS011;63749;49.186;9.222;2023-04-15T12:39:22;1.67;;;0.90;;
75169;SDS011;63749;49.186;9.222;2023-04-15T12:41:49;2.53;;;1.10;;
75169;SDS011;63749;49.186;9.222;2023-04-15T12:44:15;2.70;;;1.10;;
75169;SDS011;63749;49.186;9.222;2023-04-15T12:46:40;2.17;;;1.00;;
75169;SDS011;63749;49.186;9.222;2023-04-15T12:49:06;3.60;;;1.15;;
75169;SDS011;63749;49.186;9.222;2023-04-15T12:51:33;2.17;;;1.13;;
75169;SDS011;63749;49.186;9.222;2023-04-15T12:53:58;3.77;;;1.30;;
75169;SDS011;63749;49.186;9.222;2023-04-15T12:56:24;2.20;;;1.10;;
75169;SDS011;63749;49.186;9.222;2023-04-15T12:58:49;2.80;;;1.43;;
75169;SDS011;63749;49.186;9.222;2023-04-15T13:01:15;4.95;;;1.67;;
75169;SDS011;63749;49.186;9.222;2023-04-15T13:03:40;2.50;;;1.30;;
75169;SDS011;63749;49.186;9.222;2023-04-15T13:06:06;8.87;;;4.73;;
75169;SDS011;63749;49.186;9.222;2023-04-15T13:08:32;4.13;;;1.40;;
75169;SDS011;63749;49.186;9.222;2023-04-15T13:10:57;2.23;;;1.40;;
75169;SDS011;63749;49.186;9.222;2023-04-15T13:13:23;2.93;;;1.53;;
75169;SDS011;63749;49.186;9.222;2023-04-15T13:15:48;4.40;;;2.60;;
75169;SDS011;63749;49.186;9.222;2023-04-15T13:18:14;3.63;;;2.57;;
75169;SDS011;63749;49.186;9.222;2023-04-15T13:20:39;2.08;;;1.38;;
75169;SDS011;63749;49.186;9.222;2023-04-15T13:23:05;1.98;;;1.27;;
75169;SDS011;63749;49.186;9.222;2023-04-15T13:25:31;4.30;;;1.73;;
75169;SDS011;63749;49.186;9.222;2023-04-15T13:27:56;1.80;;;0.87;;
75169;SDS011;63749;49.186;9.222;2023-04-15T13:30:21;2.33;;;1.10;;
75169;SDS011;63749;49.186;9.222;2023-04-15T13:32:47;2.20;;;1.13;;
75169;SDS011;63749;49.186;9.222;2023-04-15T13:35:13;2.13;;;1.37;;
75169;SDS011;63749;49.186;9.222;2023-04-15T13:37:39;1.70;;;1.20;;
75169;SDS011;63749;49.186;9.222;2023-04-15T13:40:05;2.00;;;1.10;;
75169;SDS011;63749;49.186;9.222;2023-04-15T13:42:31;2.30;;;0.97;;
75169;SDS011;63749;49.186;9.222;2023-04-15T13:44:57;2.10;;;1.25;;
75169;SDS011;63749;49.186;9.222;2023-04-15T13:47:22;2.77;;;1.40;;
75169;SDS011;63749;49.186;9.222;2023-04-15T13:49:48;1.87;;;1.10;;
75169;SDS011;63749;49.186;9.222;2023-04-15T13:52:13;2.15;;;1.00;;
75169;SDS011;63749;49.186;9.222;2023-04-15T13:54:39;1.67;;;1.13;;
75169;SDS011;63749;49.186;9.222;2023-04-15T13:57:04;2.57;;;1.40;;
75169;SDS011;63749;49.186;9.222;2023-04-15T13:59:31;3.63;;;2.00;;
75169;SDS011;63749;49.186;9.222;2023-04-15T14:01:58;3.53;;;1.42;;
75169;SDS011;63749;49.186;9.222;2023-04-15T14:04:24;1.90;;;1.20;;
75169;SDS011;63749;49.186;9.222;2023-04-15T14:06:49;1.60;;;1.20;;
75169;SDS011;63749;49.186;9.222;2023-04-15T14:09:15;2.33;;;1.40;;
75169;SDS011;63749;49.186;9.222;2023-04-15T14:11:40;4.63;;;1.40;;
75169;SDS011;63749;49.186;9.222;2023-04-15T14:14:06;2.63;;;1.27;;
75169;SDS011;63749;49.186;9.222;2023-04-15T14:16:31;2.97;;;1.50;;
75169;SDS011;63749;49.186;9.222;2023-04-15T14:18:57;2.75;;;1.40;;
75169;SDS011;63749;49.186;9.222;2023-04-15T14:21:23;2.97;;;1.65;;
75169;SDS011;63749;49.186;9.222;2023-04-15T14:23:50;2.65;;;1.33;;
75169;SDS011;63749;49.186;9.222;2023-04-15T14:26:15;5.83;;;1.40;;
75169;SDS011;63749;49.186;9.222;2023-04-15T14:28:41;2.80;;;1.20;;
75169;SDS011;63749;49.186;9.222;2023-04-15T14:31:08;2.78;;;1.48;;
75169;SDS011;63749;49.186;9.222;2023-04-15T14:33:34;3.10;;;1.90;;
75169;SDS011;63749;49.186;9.222;2023-04-15T14:35:59;2.58;;;1.70;;
75169;SDS011;63749;49.186;9.222;2023-04-15T14:38:25;2.33;;;1.63;;
75169;SDS011;63749;49.186;9.222;2023-04-15T14:40:50;6.43;;;1.60;;
75169;SDS011;63749;49.186;9.222;2023-04-15T14:43:15;2.43;;;1.70;;
75169;SDS011;63749;49.186;9.222;2023-04-15T14:45:41;2.57;;;1.70;;
75169;SDS011;63749;49.186;9.222;2023-04-15T14:48:06;3.80;;;1.70;;
75169;SDS011;63749;49.186;9.222;2023-04-15T14:50:33;3.10;;;1.73;;
75169;SDS011;63749;49.186;9.222;2023-04-15T14:52:59;2.05;;;1.52;;
75169;SDS011;63749;49.186;9.222;2023-04-15T14:55:25;2.33;;;1.53;;
75169;SDS011;63749;49.186;9.222;2023-04-15T14:57:50;3.27;;;1.50;;
75169;SDS011;63749;49.186;9.222;2023-04-15T15:00:15;3.20;;;1.53;;
75169;SDS011;63749;49.186;9.222;2023-04-15T15:02:41;3.17;;;2.30;;
75169;SDS011;63749;49.186;9.222;2023-04-15T15:05:08;2.60;;;1.87;;